KLM959 EHAM-EGNT
Flight info
| Callsign | KLM959 |
|---|---|
| Flight time | N/A |
| Altitude | 32000 |
| Route | BERGI L60 SOPEK/N0398F240 L989 BODSO/N0441F320 Y70 BATLI/N0397F240 Y250 RIMTO |
| Aircraft | B738/M-SDE2E3FGHIRWXY/LB1 |
Departure
| Time | N/A |
|---|---|
| Airport | Amsterdam Airport Schiphol (EHAM) |
Arrival
| Time | 2026-05-07 15:42 |
|---|---|
| Airport | Newcastle International Airport (EGNT) |
| Time | Latitude | Longitude | Altitude | Speed | Heading |
|---|---|---|---|---|---|
| 2026-05-07 15:08 | 53.16086 | 1.18525 | 34095 ft | 464 kts | 280° |
| 2026-05-07 15:08 | 53.16695 | 1.13242 | 34096 ft | 464 kts | 280° |
| 2026-05-07 15:09 | 53.17704 | 1.04452 | 34090 ft | 463 kts | 280° |
| 2026-05-07 15:09 | 53.18908 | 0.93883 | 34088 ft | 463 kts | 280° |
| 2026-05-07 15:10 | 53.20097 | 0.83360 | 34088 ft | 463 kts | 279° |
| 2026-05-07 15:10 | 53.21281 | 0.72795 | 34082 ft | 463 kts | 279° |
| 2026-05-07 15:11 | 53.22456 | 0.62223 | 34083 ft | 463 kts | 279° |
| 2026-05-07 15:11 | 53.23624 | 0.51633 | 34078 ft | 463 kts | 279° |
| 2026-05-07 15:12 | 53.24774 | 0.41117 | 34078 ft | 463 kts | 279° |
| 2026-05-07 15:12 | 53.25911 | 0.30526 | 34073 ft | 463 kts | 279° |
| 2026-05-07 15:13 | 53.27039 | 0.19923 | 34069 ft | 462 kts | 279° |
| 2026-05-07 15:13 | 53.28153 | 0.09386 | 34067 ft | 462 kts | 278° |
| 2026-05-07 15:14 | 53.29866 | -0.00919 | 34057 ft | 464 kts | 294° |
| 2026-05-07 15:14 | 53.32751 | -0.10587 | 34057 ft | 464 kts | 296° |
| 2026-05-07 15:15 | 53.35648 | -0.20274 | 34060 ft | 464 kts | 295° |
| 2026-05-07 15:15 | 53.38473 | -0.29997 | 34057 ft | 464 kts | 295° |
| 2026-05-07 15:16 | 53.41269 | -0.39690 | 34062 ft | 464 kts | 295° |
| 2026-05-07 15:16 | 53.44080 | -0.49456 | 34072 ft | 464 kts | 295° |
| 2026-05-07 15:17 | 53.46883 | -0.59230 | 34073 ft | 464 kts | 295° |
| 2026-05-07 15:17 | 53.49677 | -0.69041 | 34068 ft | 464 kts | 295° |
| 2026-05-07 15:18 | 53.52443 | -0.78791 | 34064 ft | 465 kts | 295° |
| 2026-05-07 15:18 | 53.55234 | -0.88619 | 34056 ft | 465 kts | 295° |
| 2026-05-07 15:19 | 53.58004 | -0.98380 | 34053 ft | 465 kts | 295° |
| 2026-05-07 15:19 | 53.60728 | -1.08266 | 34049 ft | 464 kts | 289° |
| 2026-05-07 15:20 | 53.61674 | -1.13502 | 33513 ft | 468 kts | 281° |
| 2026-05-07 15:20 | 53.62326 | -1.18839 | 32932 ft | 464 kts | 279° |
| 2026-05-07 15:20 | 53.62989 | -1.24137 | 32532 ft | 458 kts | 281° |
| 2026-05-07 15:20 | 53.63701 | -1.29292 | 32043 ft | 455 kts | 285° |
| 2026-05-07 15:21 | 53.65001 | -1.34130 | 31604 ft | 452 kts | 303° |
| 2026-05-07 15:21 | 53.66995 | -1.38191 | 31165 ft | 448 kts | 317° |
| 2026-05-07 15:21 | 53.69504 | -1.41304 | 30731 ft | 444 kts | 330° |
| 2026-05-07 15:21 | 53.72134 | -1.43841 | 30324 ft | 440 kts | 331° |
| 2026-05-07 15:22 | 53.74785 | -1.46416 | 29843 ft | 436 kts | 329° |
| 2026-05-07 15:22 | 53.77390 | -1.49009 | 29372 ft | 432 kts | 329° |
| 2026-05-07 15:22 | 53.79952 | -1.51602 | 28918 ft | 427 kts | 328° |
| 2026-05-07 15:22 | 53.82486 | -1.54192 | 28484 ft | 422 kts | 328° |
| 2026-05-07 15:23 | 53.84997 | -1.56769 | 28045 ft | 418 kts | 328° |
| 2026-05-07 15:23 | 53.87445 | -1.59286 | 27586 ft | 415 kts | 328° |
| 2026-05-07 15:23 | 53.89935 | -1.61811 | 26895 ft | 418 kts | 331° |
| 2026-05-07 15:23 | 53.92610 | -1.63707 | 26281 ft | 415 kts | 343° |
| 2026-05-07 15:24 | 53.95430 | -1.64667 | 25675 ft | 410 kts | 354° |
| 2026-05-07 15:24 | 53.98264 | -1.65102 | 25052 ft | 407 kts | 355° |
| 2026-05-07 15:24 | 54.01068 | -1.65514 | 24413 ft | 403 kts | 354° |
| 2026-05-07 15:24 | 54.03854 | -1.65934 | 23735 ft | 399 kts | 354° |
| 2026-05-07 15:25 | 54.06583 | -1.66360 | 22966 ft | 396 kts | 354° |
| 2026-05-07 15:25 | 54.09315 | -1.66801 | 22249 ft | 391 kts | 353° |
| 2026-05-07 15:25 | 54.12023 | -1.67248 | 21571 ft | 386 kts | 353° |
| 2026-05-07 15:25 | 54.14690 | -1.67693 | 20911 ft | 382 kts | 353° |
| 2026-05-07 15:26 | 54.17286 | -1.68128 | 20254 ft | 378 kts | 353° |
| 2026-05-07 15:26 | 54.19891 | -1.68567 | 19613 ft | 374 kts | 353° |
| 2026-05-07 15:26 | 54.22469 | -1.69002 | 18994 ft | 370 kts | 353° |
| 2026-05-07 15:26 | 54.25027 | -1.69434 | 18388 ft | 367 kts | 353° |
| 2026-05-07 15:27 | 54.27570 | -1.69865 | 17626 ft | 367 kts | 353° |
| 2026-05-07 15:27 | 54.30106 | -1.70294 | 16983 ft | 362 kts | 353° |
| 2026-05-07 15:27 | 54.32573 | -1.70711 | 16370 ft | 357 kts | 353° |
| 2026-05-07 15:27 | 54.35038 | -1.71129 | 15726 ft | 354 kts | 353° |
| 2026-05-07 15:28 | 54.37460 | -1.71540 | 15083 ft | 351 kts | 352° |
| 2026-05-07 15:28 | 54.39888 | -1.71953 | 14462 ft | 349 kts | 352° |
| 2026-05-07 15:28 | 54.42298 | -1.72363 | 13900 ft | 346 kts | 352° |
| 2026-05-07 15:28 | 54.44686 | -1.72770 | 13442 ft | 343 kts | 352° |
| 2026-05-07 15:29 | 54.47023 | -1.73169 | 13042 ft | 340 kts | 352° |
| 2026-05-07 15:29 | 54.49376 | -1.73571 | 12656 ft | 338 kts | 352° |
| 2026-05-07 15:29 | 54.51713 | -1.73956 | 12280 ft | 336 kts | 354° |
| 2026-05-07 15:29 | 54.54036 | -1.73682 | 11899 ft | 336 kts | 11° |
| 2026-05-07 15:30 | 54.56253 | -1.72384 | 11570 ft | 336 kts | 22° |
| 2026-05-07 15:30 | 54.58391 | -1.70745 | 11236 ft | 336 kts | 23° |
| 2026-05-07 15:30 | 54.60512 | -1.69076 | 10879 ft | 333 kts | 24° |
| 2026-05-07 15:30 | 54.62589 | -1.67437 | 10549 ft | 331 kts | 24° |
| 2026-05-07 15:31 | 54.64706 | -1.65776 | 10211 ft | 328 kts | 23° |
| 2026-05-07 15:31 | 54.66781 | -1.64157 | 9924 ft | 325 kts | 23° |
| 2026-05-07 15:31 | 54.68800 | -1.62588 | 9931 ft | 310 kts | 23° |
| 2026-05-07 15:31 | 54.70712 | -1.61104 | 9872 ft | 299 kts | 22° |
| 2026-05-07 15:32 | 54.72585 | -1.59653 | 9718 ft | 292 kts | 22° |
| 2026-05-07 15:32 | 54.74430 | -1.58224 | 9441 ft | 289 kts | 22° |
| 2026-05-07 15:32 | 54.76269 | -1.56800 | 9112 ft | 289 kts | 22° |
| 2026-05-07 15:32 | 54.78089 | -1.55390 | 8744 ft | 285 kts | 22° |
| 2026-05-07 15:33 | 54.79876 | -1.54004 | 8299 ft | 284 kts | 22° |
| 2026-05-07 15:33 | 54.81675 | -1.52608 | 7870 ft | 283 kts | 22° |
| 2026-05-07 15:33 | 54.83472 | -1.51211 | 7485 ft | 280 kts | 22° |
| 2026-05-07 15:33 | 54.85245 | -1.49832 | 7081 ft | 278 kts | 22° |
| 2026-05-07 15:34 | 54.86982 | -1.48479 | 6690 ft | 276 kts | 22° |
| 2026-05-07 15:34 | 54.88728 | -1.47118 | 6280 ft | 274 kts | 22° |
| 2026-05-07 15:34 | 54.90459 | -1.45768 | 5938 ft | 271 kts | 22° |
| 2026-05-07 15:34 | 54.92175 | -1.44428 | 5647 ft | 270 kts | 22° |
| 2026-05-07 15:35 | 54.93887 | -1.43090 | 5383 ft | 265 kts | 22° |
| 2026-05-07 15:35 | 54.95520 | -1.41812 | 5313 ft | 250 kts | 22° |
| 2026-05-07 15:35 | 54.97067 | -1.40600 | 5197 ft | 237 kts | 23° |
| 2026-05-07 15:35 | 54.98529 | -1.39454 | 4827 ft | 235 kts | 22° |
| 2026-05-07 15:36 | 55.00020 | -1.38286 | 4440 ft | 232 kts | 23° |
| 2026-05-07 15:36 | 55.01484 | -1.37177 | 4137 ft | 224 kts | 15° |
| 2026-05-07 15:36 | 55.02949 | -1.37130 | 3892 ft | 203 kts | 335° |
| 2026-05-07 15:36 | 55.04164 | -1.38180 | 3716 ft | 189 kts | 321° |
| 2026-05-07 15:37 | 55.05233 | -1.39468 | 3505 ft | 184 kts | 319° |
| 2026-05-07 15:37 | 55.06256 | -1.40735 | 3317 ft | 182 kts | 319° |
| 2026-05-07 15:37 | 55.07290 | -1.42013 | 3138 ft | 183 kts | 319° |
| 2026-05-07 15:37 | 55.08339 | -1.43302 | 2950 ft | 185 kts | 319° |
| 2026-05-07 15:38 | 55.09277 | -1.44782 | 2738 ft | 178 kts | 293° |
| 2026-05-07 15:38 | 55.09490 | -1.46768 | 2568 ft | 163 kts | 250° |
| 2026-05-07 15:38 | 55.09103 | -1.48615 | 2560 ft | 168 kts | 246° |
| 2026-05-07 15:38 | 55.08678 | -1.50528 | 2423 ft | 168 kts | 242° |
| 2026-05-07 15:39 | 55.08209 | -1.52358 | 2208 ft | 160 kts | 241° |
| 2026-05-07 15:39 | 55.07754 | -1.54072 | 2012 ft | 150 kts | 240° |
| 2026-05-07 15:39 | 55.07327 | -1.55674 | 1783 ft | 141 kts | 240° |
| 2026-05-07 15:39 | 55.06931 | -1.57162 | 1605 ft | 134 kts | 239° |
| 2026-05-07 15:40 | 55.06537 | -1.58636 | 1419 ft | 137 kts | 240° |
| 2026-05-07 15:40 | 55.06133 | -1.60160 | 1229 ft | 140 kts | 240° |
| 2026-05-07 15:40 | 55.05734 | -1.61664 | 1029 ft | 136 kts | 239° |
| 2026-05-07 15:40 | 55.05337 | -1.63173 | 807 ft | 137 kts | 240° |
| 2026-05-07 15:41 | 55.04934 | -1.64655 | 652 ft | 136 kts | 240° |
| 2026-05-07 15:41 | 55.04544 | -1.66144 | 430 ft | 133 kts | 243° |
| 2026-05-07 15:41 | 55.04158 | -1.67601 | 271 ft | 132 kts | 243° |
| 2026-05-07 15:41 | 55.03807 | -1.68924 | 251 ft | 95 kts | 244° |
| 2026-05-07 15:42 | 55.03623 | -1.69617 | 257 ft | 31 kts | 245° |
| 2026-05-07 15:42 | 55.03581 | -1.69891 | 260 ft | 23 kts | 275° |
| 2026-05-07 15:42 | 55.03592 | -1.70160 | 263 ft | 18 kts | 274° |
| 2026-05-07 15:42 | 55.03597 | -1.70260 | 264 ft | 7 kts | 275° |
| 2026-05-07 15:43 | 55.03600 | -1.70344 | 266 ft | 7 kts | 274° |
| 2026-05-07 15:43 | 55.03612 | -1.70422 | 266 ft | 7 kts | 304° |
| 2026-05-07 15:43 | 55.03656 | -1.70440 | 266 ft | 7 kts | 3° |
| 2026-05-07 15:43 | 55.03702 | -1.70435 | 266 ft | 7 kts | 5° |
| 2026-05-07 15:44 | 55.03757 | -1.70429 | 266 ft | 9 kts | 356° |
| 2026-05-07 15:44 | 55.03798 | -1.70493 | 266 ft | 9 kts | 274° |
| 2026-05-07 15:44 | 55.03802 | -1.70598 | 266 ft | 8 kts | 274° |
| 2026-05-07 15:44 | 55.03796 | -1.70659 | 266 ft | 5 kts | 229° |
| 2026-05-07 15:45 | 55.03763 | -1.70666 | 266 ft | 5 kts | 180° |
| 2026-05-07 15:45 | 55.03733 | -1.70670 | 266 ft | 2 kts | 184° |
| 2026-05-07 15:45 | 55.03731 | -1.70670 | 266 ft | 1 kts | 185° |